Time;durP1;ratioP1;P1;durP2;ratioP2;P2;SDS_P1;SDS_P2;PMS_P1;PMS_P2;Temp;Humidity;BMP_temperature;BMP_pressure;BME280_temperature;BME280_humidity;BME280_pressure;Samples;Min_cycle;Max_cycle;Signal;HPM_P1;HPM_P2
2023/04/03 15:20:54;;;;;;;6.18;1.63;;;9.10;67.90;;;;;;5068491;28;20373;-60
2023/04/03 15:23:20;;;;;;;3.00;1.40;;;9.50;69.40;;;;;;5050076;28;20380;-61
2023/04/03 15:25:48;;;;;;;4.20;1.70;;;10.10;68.70;;;;;;5048970;28;20025;-61
2023/04/03 15:28:35;;;;;;;2.65;1.20;;;10.60;66.20;;;;;;5063477;28;20021;-59
2023/04/03 15:31:02;;;;;;;2.85;1.35;;;11.20;65.40;;;;;;5067048;28;20029;-60
2023/04/03 15:33:28;;;;;;;2.15;1.20;;;11.70;62.40;;;;;;5062048;28;20017;-60
2023/04/03 15:35:54;;;;;;;5.32;2.33;;;12.10;61.20;;;;;;5048998;28;20508;-60
2023/04/03 15:38:19;;;;;;;5.10;1.80;;;12.40;60.00;;;;;;5049030;28;20108;-60
2023/04/03 15:40:46;;;;;;;3.65;1.33;;;12.70;58.80;;;;;;5048662;28;20052;-59
2023/04/03 15:43:13;;;;;;;4.53;1.55;;;13.00;57.50;;;;;;5049371;28;20078;-60
2023/04/03 15:45:39;;;;;;;4.13;1.90;;;13.20;56.90;;;;;;5048798;28;20026;-59
2023/04/03 15:48:05;;;;;;;5.25;1.92;;;13.50;56.10;;;;;;5051847;28;20369;-58
2023/04/03 15:50:32;;;;;;;6.05;2.08;;;13.80;56.00;;;;;;5067026;28;20056;-58
2023/04/03 15:52:58;;;;;;;7.18;1.80;;;14.10;54.60;;;;;;5068117;28;20055;-58
2023/04/03 15:55:28;;;;;;;4.32;1.77;;;14.40;52.80;;;;;;5068079;28;20017;-59
2023/04/03 15:57:54;;;;;;;3.05;1.73;;;14.60;52.50;;;;;;5067874;28;20117;-59
2023/04/03 16:00:21;;;;;;;3.85;1.20;;;14.70;53.20;;;;;;5052045;28;20044;-59
2023/04/03 16:02:50;;;;;;;3.58;1.50;;;15.00;51.70;;;;;;5049793;28;20538;-59
2023/04/03 16:05:17;;;;;;;3.55;1.60;;;15.20;51.40;;;;;;5065891;28;20017;-58
2023/04/03 16:07:44;;;;;;;2.13;1.05;;;15.40;50.70;;;;;;5066184;28;20103;-58
2023/04/03 16:10:10;;;;;;;2.83;1.42;;;15.50;51.20;;;;;;5065657;28;20468;-59
2023/04/03 16:12:36;;;;;;;3.85;1.70;;;15.60;49.60;;;;;;5066329;28;20024;-59
2023/04/03 16:15:03;;;;;;;1.35;0.90;;;15.50;47.30;;;;;;5065981;28;20060;-58
2023/04/03 16:17:29;;;;;;;4.53;1.30;;;15.50;48.00;;;;;;5064450;28;20614;-59
2023/04/03 16:19:55;;;;;;;1.90;1.13;;;15.60;48.00;;;;;;5059472;28;20509;-60
2023/04/03 16:22:24;;;;;;;3.90;1.38;;;15.60;47.20;;;;;;5046562;28;20025;-59
2023/04/03 16:24:50;;;;;;;2.55;1.30;;;15.60;47.10;;;;;;5045781;28;20446;-60
2023/04/03 16:27:16;;;;;;;3.85;1.35;;;15.60;46.50;;;;;;5046758;28;20021;-60
2023/04/03 16:29:42;;;;;;;5.75;1.52;;;15.90;47.50;;;;;;5041240;28;20037;-58
2023/04/03 16:32:08;;;;;;;4.13;1.40;;;16.10;46.30;;;;;;5033411;28;20041;-59
2023/04/03 16:34:33;;;;;;;1.95;1.40;;;16.20;45.90;;;;;;5032999;28;20021;-59
2023/04/03 16:37:00;;;;;;;2.33;1.13;;;16.10;45.30;;;;;;5032064;28;20108;-58
2023/04/03 16:39:26;;;;;;;2.00;1.23;;;16.00;44.30;;;;;;5032640;28;20030;-59
2023/04/03 16:41:51;;;;;;;5.07;2.20;;;15.80;44.30;;;;;;5032476;28;20035;-56
2023/04/03 16:44:17;;;;;;;3.47;1.40;;;15.70;44.60;;;;;;5032357;28;20436;-59
2023/04/03 16:46:43;;;;;;;2.80;1.30;;;15.80;45.10;;;;;;5032978;28;20029;-59
2023/04/03 16:49:08;;;;;;;2.88;1.35;;;15.80;44.40;;;;;;5032843;28;20537;-58
2023/04/03 16:51:34;;;;;;;5.43;1.77;;;15.80;44.30;;;;;;5031913;28;20437;-60
2023/04/03 16:54:00;;;;;;;2.53;1.20;;;15.70;44.80;;;;;;5032281;28;20014;-60
2023/04/03 16:56:26;;;;;;;4.90;1.73;;;15.60;44.40;;;;;;5032718;28;20047;-59
2023/04/03 16:58:53;;;;;;;5.30;2.03;;;15.50;44.50;;;;;;5031481;28;20033;-58
2023/04/03 17:01:20;;;;;;;5.78;2.30;;;15.30;45.30;;;;;;5031948;28;20489;-59
2023/04/03 17:03:46;;;;;;;5.65;2.20;;;15.20;46.10;;;;;;5031983;28;20029;-58
2023/04/03 17:06:16;;;;;;;5.18;2.35;;;15.10;45.90;;;;;;5031564;28;20029;-58
2023/04/03 17:08:43;;;;;;;4.18;1.38;;;15.00;46.20;;;;;;5043086;28;20374;-58
2023/04/03 17:11:09;;;;;;;3.60;1.08;;;14.90;46.50;;;;;;5031850;28;20441;-59
2023/04/03 17:13:35;;;;;;;4.35;1.23;;;14.60;46.00;;;;;;5031291;28;20040;-58
2023/04/03 17:16:04;;;;;;;3.70;1.20;;;14.30;46.80;;;;;;5031722;28;20025;-58
2023/04/03 17:18:31;;;;;;;1.90;1.10;;;13.90;47.70;;;;;;5023823;28;20037;-58
2023/04/03 17:20:57;;;;;;;4.78;1.33;;;13.50;49.00;;;;;;5011017;28;20037;-56
2023/04/03 17:23:28;;;;;;;3.45;1.30;;;13.00;49.70;;;;;;5037006;28;20498;-58
2023/04/03 17:25:54;;;;;;;3.80;1.40;;;12.60;50.50;;;;;;5051066;28;20043;-57
2023/04/03 17:28:27;;;;;;;1.45;1.10;;;12.00;51.30;;;;;;5051784;28;20509;-58
2023/04/03 17:30:57;;;;;;;2.13;1.30;;;11.50;52.20;;;;;;5051527;28;20021;-59
2023/04/03 17:33:24;;;;;;;2.22;1.10;;;11.10;53.10;;;;;;5049134;28;20025;-57
2023/04/03 17:35:49;;;;;;;3.40;1.25;;;10.80;54.00;;;;;;5051478;28;20021;-62
2023/04/03 17:38:16;;;;;;;1.48;1.08;;;10.50;53.90;;;;;;5047304;28;20511;-61
2023/04/03 17:40:43;;;;;;;3.38;1.45;;;10.20;54.90;;;;;;5049208;28;20044;-60
2023/04/03 17:43:10;;;;;;;2.35;1.40;;;9.90;55.90;;;;;;5050221;28;20017;-60
2023/04/03 17:45:36;;;;;;;3.08;1.20;;;9.70;56.70;;;;;;5052937;28;20029;-60
2023/04/03 17:48:02;;;;;;;2.80;1.20;;;9.50;57.50;;;;;;5052526;28;20021;-62
2023/04/03 17:50:28;;;;;;;3.28;1.55;;;9.30;57.90;;;;;;5053037;28;20384;-62
2023/04/03 17:52:54;;;;;;;3.47;1.60;;;9.20;58.70;;;;;;5053188;28;20469;-62
2023/04/03 17:55:20;;;;;;;5.82;2.17;;;9.10;58.90;;;;;;5052601;28;20027;-60
2023/04/03 17:57:45;;;;;;;2.65;1.50;;;9.00;60.00;;;;;;5053037;28;20469;-61
2023/04/03 18:00:11;;;;;;;4.68;1.80;;;8.80;60.60;;;;;;5053090;28;20029;-61
2023/04/03 18:02:37;;;;;;;3.75;1.73;;;8.70;60.90;;;;;;5052665;28;20519;-58
2023/04/03 18:05:03;;;;;;;4.63;1.70;;;8.60;62.10;;;;;;5052935;28;20028;-61
2023/04/03 18:07:29;;;;;;;4.45;1.80;;;8.50;61.60;;;;;;5052935;28;20025;-58
2023/04/03 18:09:56;;;;;;;2.53;1.10;;;8.40;62.00;;;;;;5052000;28;20044;-60
2023/04/03 18:12:22;;;;;;;3.58;1.52;;;8.30;62.40;;;;;;5053021;28;20063;-57
2023/04/03 18:14:48;;;;;;;5.30;1.20;;;8.20;62.70;;;;;;5045630;28;20029;-61
2023/04/03 18:17:14;;;;;;;2.97;1.35;;;8.10;63.30;;;;;;5034142;28;20033;-61
2023/04/03 18:19:40;;;;;;;2.33;1.02;;;8.10;63.20;;;;;;5032527;28;20371;-61
2023/04/03 18:22:11;;;;;;;5.40;1.92;;;7.90;63.50;;;;;;5047409;28;20021;-61
2023/04/03 18:24:37;;;;;;;3.40;1.83;;;7.90;64.00;;;;;;5052717;28;20077;-61
2023/04/03 18:27:10;;;;;;;3.53;1.58;;;7.80;64.00;;;;;;5050416;28;20029;-59
2023/04/03 18:29:39;;;;;;;3.15;1.23;;;7.70;64.30;;;;;;5050040;28;20032;-59
2023/04/03 18:32:05;;;;;;;3.15;1.33;;;7.60;64.40;;;;;;5050140;28;20062;-61
2023/04/03 18:34:32;;;;;;;2.22;1.52;;;7.60;64.70;;;;;;5048960;28;20032;-59
2023/04/03 18:36:57;;;;;;;1.70;1.05;;;7.50;65.10;;;;;;5049572;28;20100;-61
2023/04/03 18:39:23;;;;;;;3.00;1.13;;;7.50;65.90;;;;;;5049148;28;20124;-58
2023/04/03 18:41:49;;;;;;;3.35;1.10;;;7.50;66.00;;;;;;5048999;28;20035;-58
2023/04/03 18:44:17;;;;;;;2.53;1.35;;;7.40;66.00;;;;;;5049439;28;20029;-56
2023/04/03 18:46:43;;;;;;;1.85;1.02;;;7.40;66.50;;;;;;5048388;28;20040;-57
2023/04/03 18:49:10;;;;;;;2.47;1.17;;;7.30;66.70;;;;;;5048989;28;20029;-59
2023/04/03 18:51:39;;;;;;;3.03;1.45;;;7.20;67.30;;;;;;5049851;28;20025;-58
2023/04/03 18:54:08;;;;;;;2.55;1.23;;;7.10;67.80;;;;;;5049800;28;20079;-58
2023/04/03 18:56:34;;;;;;;1.88;1.13;;;7.10;68.30;;;;;;5048219;28;20025;-58
2023/04/03 18:59:00;;;;;;;1.98;1.10;;;7.10;68.70;;;;;;5046546;28;20162;-61
2023/04/03 19:01:26;;;;;;;4.47;1.30;;;7.00;68.80;;;;;;5048756;28;20111;-60
2023/04/03 19:03:52;;;;;;;2.28;1.17;;;7.10;69.00;;;;;;5049879;28;20021;-58
2023/04/03 19:06:18;;;;;;;2.80;1.08;;;7.00;69.40;;;;;;5049207;28;20028;-60
2023/04/03 19:08:44;;;;;;;2.40;1.70;;;7.00;69.50;;;;;;5048426;28;20120;-58
2023/04/03 19:11:10;;;;;;;2.55;1.55;;;7.00;69.50;;;;;;5050171;28;20020;-58
2023/04/03 19:13:35;;;;;;;3.08;1.60;;;7.00;69.50;;;;;;5039758;28;20060;-60
2023/04/03 19:16:01;;;;;;;3.88;1.75;;;6.90;69.80;;;;;;5029755;28;20072;-59
2023/04/03 19:18:28;;;;;;;4.03;1.98;;;6.90;70.20;;;;;;5029756;28;20009;-59
2023/04/03 19:20:55;;;;;;;3.67;1.60;;;6.80;70.10;;;;;;5049167;28;20033;-58
2023/04/03 19:23:22;;;;;;;3.40;1.42;;;6.70;70.30;;;;;;5047702;28;20052;-60
2023/04/03 19:26:00;;;;;;;3.17;1.48;;;6.70;70.60;;;;;;5048007;28;20023;-60
2023/04/03 19:28:25;;;;;;;5.57;2.00;;;6.60;70.70;;;;;;5049814;28;20043;-60
2023/04/03 19:30:52;;;;;;;3.22;2.25;;;6.60;71.20;;;;;;5042068;28;20057;-57
2023/04/03 19:33:18;;;;;;;3.40;2.22;;;6.50;71.60;;;;;;5029394;28;20101;-57
2023/04/03 19:35:44;;;;;;;4.65;2.40;;;6.40;71.90;;;;;;5029852;28;20113;-57
2023/04/03 19:38:09;;;;;;;6.70;2.20;;;6.30;72.40;;;;;;5028735;28;20171;-60
2023/04/03 19:40:37;;;;;;;3.58;2.30;;;6.20;72.80;;;;;;5028195;28;20053;-60
2023/04/03 19:43:03;;;;;;;3.42;1.98;;;6.20;73.20;;;;;;5029308;28;20025;-57
2023/04/03 19:45:29;;;;;;;6.20;2.20;;;6.10;73.40;;;;;;5030790;28;20492;-60
2023/04/03 19:47:58;;;;;;;2.90;2.17;;;6.00;73.70;;;;;;5029105;28;20022;-59
2023/04/03 19:50:23;;;;;;;2.80;1.50;;;6.00;73.90;;;;;;5030130;28;20021;-62
2023/04/03 19:52:49;;;;;;;2.25;1.45;;;5.90;73.90;;;;;;5029467;28;20083;-58
2023/04/03 19:55:14;;;;;;;2.22;1.95;;;5.90;74.20;;;;;;5029020;28;20113;-59
2023/04/03 19:57:40;;;;;;;2.85;1.95;;;5.90;74.30;;;;;;5028397;28;20056;-57
2023/04/03 20:00:07;;;;;;;4.28;1.92;;;5.80;74.10;;;;;;5029440;28;20057;-58
2023/04/03 20:02:32;;;;;;;4.95;2.00;;;5.80;74.20;;;;;;5043959;28;20044;-57
2023/04/03 20:04:58;;;;;;;2.70;1.48;;;5.80;74.70;;;;;;5049370;28;20025;-57
2023/04/03 20:07:24;;;;;;;3.90;2.13;;;5.70;75.10;;;;;;5052818;28;20079;-62
2023/04/03 20:09:49;;;;;;;4.07;1.75;;;5.70;75.70;;;;;;5052248;28;20023;-59
2023/04/03 20:12:15;;;;;;;3.38;2.13;;;5.60;76.30;;;;;;5053443;28;20025;-59
2023/04/03 20:14:42;;;;;;;3.45;2.00;;;5.50;76.60;;;;;;5051046;28;20029;-56
2023/04/03 20:17:08;;;;;;;3.88;2.08;;;5.40;77.10;;;;;;5053350;28;20025;-61
2023/04/03 20:19:34;;;;;;;4.35;2.13;;;5.30;77.50;;;;;;5052578;28;20128;-60
2023/04/03 20:22:00;;;;;;;3.33;1.52;;;5.30;77.70;;;;;;5051775;28;20141;-58
2023/04/03 20:24:27;;;;;;;5.85;2.25;;;5.20;78.00;;;;;;5033181;28;20489;-58
2023/04/03 20:26:55;;;;;;;4.43;1.92;;;5.10;78.50;;;;;;5033919;28;20032;-59
2023/04/03 20:29:22;;;;;;;4.57;2.00;;;5.10;78.60;;;;;;5032484;28;20041;-55
2023/04/03 20:31:48;;;;;;;4.75;1.92;;;5.00;78.90;;;;;;5031251;28;20022;-58
2023/04/03 20:34:14;;;;;;;6.25;2.35;;;4.90;79.30;;;;;;5033045;28;20021;-56
2023/04/03 20:36:41;;;;;;;5.55;2.40;;;4.90;79.90;;;;;;5032476;28;20030;-60
2023/04/03 20:39:07;;;;;;;4.75;1.88;;;4.90;80.30;;;;;;5033402;28;20034;-54
2023/04/03 20:41:35;;;;;;;3.30;1.88;;;4.80;80.40;;;;;;5048778;28;20032;-60
2023/04/03 20:44:01;;;;;;;5.30;1.90;;;4.80;80.60;;;;;;5049641;28;20816;-59
2023/04/03 20:46:27;;;;;;;2.92;1.63;;;4.80;81.00;;;;;;5051491;28;20017;-58
2023/04/03 20:48:53;;;;;;;3.13;1.85;;;4.80;81.30;;;;;;5052305;28;20023;-57
2023/04/03 20:51:20;;;;;;;5.53;1.85;;;4.80;81.40;;;;;;5052242;28;20444;-60
2023/04/03 20:53:46;;;;;;;4.55;1.80;;;4.70;81.90;;;;;;5050932;28;20443;-57
2023/04/03 20:56:13;;;;;;;5.40;1.90;;;4.60;82.50;;;;;;5050872;28;20059;-60
2023/04/03 20:58:39;;;;;;;3.45;1.65;;;4.50;83.20;;;;;;5035724;28;20057;-57
2023/04/03 21:01:19;;;;;;;4.93;2.17;;;4.50;84.20;;;;;;5032322;28;20033;-58
2023/04/03 21:03:46;;;;;;;3.63;1.92;;;4.40;85.30;;;;;;5034507;28;20083;-56
2023/04/03 21:06:49;;;;;;;4.05;2.35;;;4.30;86.30;;;;;;5051548;28;20025;-58
2023/04/03 21:09:54;;;;;;;4.68;2.38;;;4.20;88.30;;;;;;5052243;28;20112;-58
2023/04/03 21:12:57;;;;;;;4.03;2.20;;;4.10;89.60;;;;;;5051807;28;20087;-58
2023/04/03 21:15:54;;;;;;;5.40;2.35;;;4.10;90.50;;;;;;5052004;28;20028;-60
2023/04/03 21:18:49;;;;;;;3.65;2.00;;;4.00;91.10;;;;;;5044220;28;20049;-56
2023/04/03 21:21:21;;;;;;;4.85;1.92;;;3.90;91.80;;;;;;5032055;28;20049;-56
2023/04/03 21:23:47;;;;;;;;;;;3.80;92.30;;;;;;5032588;28;20370;-59
2023/04/03 21:26:13;;;;;;;5.18;2.20;;;3.80;93.00;;;;;;5043109;28;19931;-61
2023/04/03 21:28:41;;;;;;;3.35;2.10;;;3.80;93.30;;;;;;5051851;28;20463;-59
2023/04/03 21:31:07;;;;;;;5.53;2.45;;;3.80;93.60;;;;;;5051888;28;20040;-62
2023/04/03 21:33:33;;;;;;;6.32;2.47;;;3.80;93.90;;;;;;5051109;28;20032;-58
2023/04/03 21:35:58;;;;;;;5.38;2.47;;;3.80;94.30;;;;;;5051622;28;20028;-60
2023/04/03 21:38:27;;;;;;;8.07;2.40;;;3.80;94.70;;;;;;5051744;28;20029;-59
2023/04/03 21:40:56;;;;;;;4.65;1.98;;;3.70;94.90;;;;;;5036649;28;20037;-58
2023/04/03 21:43:22;;;;;;;4.28;2.17;;;3.70;95.00;;;;;;5033834;28;20037;-58
2023/04/03 21:45:53;;;;;;;3.33;1.95;;;3.60;94.80;;;;;;5033145;28;20029;-55
2023/04/03 21:48:19;;;;;;;6.20;1.80;;;3.60;95.10;;;;;;5033079;28;20048;-56
2023/04/03 21:50:46;;;;;;;4.15;1.85;;;3.50;95.40;;;;;;5032959;28;20027;-60
